sensor_id;sensor_type;location;lat;lon;timestamp;P1;durP1;ratioP1;P2;durP2;ratioP2
58302;SDS011;44109;52.398;7.024;2023-04-24T00:01:32;4.20;;;2.15;;
58302;SDS011;44109;52.398;7.024;2023-04-24T00:03:59;5.65;;;3.42;;
58302;SDS011;44109;52.398;7.024;2023-04-24T00:06:29;4.68;;;2.90;;
58302;SDS011;44109;52.398;7.024;2023-04-24T00:08:58;4.72;;;3.33;;
58302;SDS011;44109;52.398;7.024;2023-04-24T00:11:28;3.45;;;2.63;;
58302;SDS011;44109;52.398;7.024;2023-04-24T00:13:57;5.40;;;3.20;;
58302;SDS011;44109;52.398;7.024;2023-04-24T00:16:24;4.05;;;2.90;;
58302;SDS011;44109;52.398;7.024;2023-04-24T00:18:52;4.93;;;2.60;;
58302;SDS011;44109;52.398;7.024;2023-04-24T00:21:20;4.20;;;3.55;;
58302;SDS011;44109;52.398;7.024;2023-04-24T00:23:51;6.35;;;3.03;;
58302;SDS011;44109;52.398;7.024;2023-04-24T00:26:19;6.25;;;3.50;;
58302;SDS011;44109;52.398;7.024;2023-04-24T00:28:49;6.10;;;3.53;;
58302;SDS011;44109;52.398;7.024;2023-04-24T00:31:16;3.65;;;2.40;;
58302;SDS011;44109;52.398;7.024;2023-04-24T00:33:44;9.25;;;4.22;;
58302;SDS011;44109;52.398;7.024;2023-04-24T00:36:12;4.93;;;3.10;;
58302;SDS011;44109;52.398;7.024;2023-04-24T00:38:40;7.03;;;3.05;;
58302;SDS011;44109;52.398;7.024;2023-04-24T00:41:07;4.38;;;2.65;;
58302;SDS011;44109;52.398;7.024;2023-04-24T00:43:35;5.15;;;2.55;;
58302;SDS011;44109;52.398;7.024;2023-04-24T00:46:04;5.85;;;3.35;;
58302;SDS011;44109;52.398;7.024;2023-04-24T00:48:32;4.50;;;3.13;;
58302;SDS011;44109;52.398;7.024;2023-04-24T00:51:01;4.57;;;2.85;;
58302;SDS011;44109;52.398;7.024;2023-04-24T00:53:28;4.78;;;3.28;;
58302;SDS011;44109;52.398;7.024;2023-04-24T00:55:56;4.72;;;3.53;;
58302;SDS011;44109;52.398;7.024;2023-04-24T00:58:24;5.78;;;3.33;;
58302;SDS011;44109;52.398;7.024;2023-04-24T01:00:53;3.70;;;2.55;;
58302;SDS011;44109;52.398;7.024;2023-04-24T01:03:25;4.80;;;3.28;;
58302;SDS011;44109;52.398;7.024;2023-04-24T01:05:57;4.60;;;2.90;;
58302;SDS011;44109;52.398;7.024;2023-04-24T01:08:25;6.55;;;4.00;;
58302;SDS011;44109;52.398;7.024;2023-04-24T01:10:55;5.88;;;3.08;;
58302;SDS011;44109;52.398;7.024;2023-04-24T01:13:24;4.90;;;3.05;;
58302;SDS011;44109;52.398;7.024;2023-04-24T01:15:52;4.85;;;2.83;;
58302;SDS011;44109;52.398;7.024;2023-04-24T01:18:20;7.63;;;4.93;;
58302;SDS011;44109;52.398;7.024;2023-04-24T01:20:49;6.82;;;4.93;;
58302;SDS011;44109;52.398;7.024;2023-04-24T01:23:23;6.43;;;4.97;;
58302;SDS011;44109;52.398;7.024;2023-04-24T01:25:50;7.85;;;5.05;;
58302;SDS011;44109;52.398;7.024;2023-04-24T01:28:18;6.80;;;4.20;;
58302;SDS011;44109;52.398;7.024;2023-04-24T01:30:46;8.68;;;5.82;;
58302;SDS011;44109;52.398;7.024;2023-04-24T01:33:14;9.50;;;6.13;;
58302;SDS011;44109;52.398;7.024;2023-04-24T01:35:43;7.60;;;4.47;;
58302;SDS011;44109;52.398;7.024;2023-04-24T01:38:11;8.10;;;5.78;;
58302;SDS011;44109;52.398;7.024;2023-04-24T01:40:40;6.15;;;4.15;;
58302;SDS011;44109;52.398;7.024;2023-04-24T01:43:08;10.32;;;6.63;;
58302;SDS011;44109;52.398;7.024;2023-04-24T01:45:36;8.02;;;5.32;;
58302;SDS011;44109;52.398;7.024;2023-04-24T01:48:03;12.98;;;7.88;;
58302;SDS011;44109;52.398;7.024;2023-04-24T01:50:32;10.55;;;7.13;;
58302;SDS011;44109;52.398;7.024;2023-04-24T01:52:59;9.20;;;5.03;;
58302;SDS011;44109;52.398;7.024;2023-04-24T01:55:27;9.32;;;5.82;;
58302;SDS011;44109;52.398;7.024;2023-04-24T01:57:56;8.25;;;5.93;;
58302;SDS011;44109;52.398;7.024;2023-04-24T02:00:24;8.20;;;5.50;;
58302;SDS011;44109;52.398;7.024;2023-04-24T02:02:52;7.45;;;4.55;;
58302;SDS011;44109;52.398;7.024;2023-04-24T02:05:20;7.95;;;4.90;;
58302;SDS011;44109;52.398;7.024;2023-04-24T02:07:48;8.65;;;6.15;;
58302;SDS011;44109;52.398;7.024;2023-04-24T02:10:15;9.38;;;5.63;;
58302;SDS011;44109;52.398;7.024;2023-04-24T02:12:43;8.48;;;5.03;;
58302;SDS011;44109;52.398;7.024;2023-04-24T02:15:12;8.73;;;4.63;;
58302;SDS011;44109;52.398;7.024;2023-04-24T02:17:40;9.88;;;6.15;;
58302;SDS011;44109;52.398;7.024;2023-04-24T02:20:08;8.23;;;5.07;;
58302;SDS011;44109;52.398;7.024;2023-04-24T02:22:36;9.38;;;5.90;;
58302;SDS011;44109;52.398;7.024;2023-04-24T02:25:04;8.73;;;5.57;;
58302;SDS011;44109;52.398;7.024;2023-04-24T02:27:33;8.10;;;5.55;;
58302;SDS011;44109;52.398;7.024;2023-04-24T02:30:01;9.25;;;5.03;;
58302;SDS011;44109;52.398;7.024;2023-04-24T02:32:30;8.95;;;5.57;;
58302;SDS011;44109;52.398;7.024;2023-04-24T02:34:59;10.13;;;5.55;;
58302;SDS011;44109;52.398;7.024;2023-04-24T02:37:27;5.90;;;4.20;;
58302;SDS011;44109;52.398;7.024;2023-04-24T02:39:54;8.38;;;5.40;;
58302;SDS011;44109;52.398;7.024;2023-04-24T02:42:22;8.25;;;4.72;;
58302;SDS011;44109;52.398;7.024;2023-04-24T02:44:50;7.80;;;4.53;;
58302;SDS011;44109;52.398;7.024;2023-04-24T02:47:17;9.35;;;5.20;;
58302;SDS011;44109;52.398;7.024;2023-04-24T02:49:46;8.75;;;6.45;;
58302;SDS011;44109;52.398;7.024;2023-04-24T02:52:14;8.55;;;5.13;;
58302;SDS011;44109;52.398;7.024;2023-04-24T02:54:42;11.00;;;5.55;;
58302;SDS011;44109;52.398;7.024;2023-04-24T02:57:10;8.50;;;4.85;;
58302;SDS011;44109;52.398;7.024;2023-04-24T02:59:38;11.93;;;7.18;;
58302;SDS011;44109;52.398;7.024;2023-04-24T03:02:05;13.95;;;7.53;;
58302;SDS011;44109;52.398;7.024;2023-04-24T03:04:33;14.38;;;10.30;;
58302;SDS011;44109;52.398;7.024;2023-04-24T03:07:02;12.20;;;8.00;;
58302;SDS011;44109;52.398;7.024;2023-04-24T03:09:30;10.05;;;6.80;;
58302;SDS011;44109;52.398;7.024;2023-04-24T03:11:57;11.02;;;8.02;;
58302;SDS011;44109;52.398;7.024;2023-04-24T03:14:26;14.90;;;8.63;;
58302;SDS011;44109;52.398;7.024;2023-04-24T03:16:57;15.75;;;9.65;;
58302;SDS011;44109;52.398;7.024;2023-04-24T03:19:24;12.70;;;8.15;;
58302;SDS011;44109;52.398;7.024;2023-04-24T03:21:52;16.88;;;11.32;;
58302;SDS011;44109;52.398;7.024;2023-04-24T03:24:21;19.02;;;10.88;;
58302;SDS011;44109;52.398;7.024;2023-04-24T03:26:49;13.55;;;9.07;;
58302;SDS011;44109;52.398;7.024;2023-04-24T03:29:16;9.82;;;7.00;;
58302;SDS011;44109;52.398;7.024;2023-04-24T03:31:44;16.73;;;10.00;;
58302;SDS011;44109;52.398;7.024;2023-04-24T03:34:12;16.27;;;10.93;;
58302;SDS011;44109;52.398;7.024;2023-04-24T03:36:39;17.52;;;10.45;;
58302;SDS011;44109;52.398;7.024;2023-04-24T03:39:07;11.93;;;7.10;;
58302;SDS011;44109;52.398;7.024;2023-04-24T03:41:36;15.35;;;8.55;;
58302;SDS011;44109;52.398;7.024;2023-04-24T03:44:03;12.35;;;7.40;;
58302;SDS011;44109;52.398;7.024;2023-04-24T03:46:31;17.63;;;9.57;;
58302;SDS011;44109;52.398;7.024;2023-04-24T03:48:59;12.23;;;7.95;;
58302;SDS011;44109;52.398;7.024;2023-04-24T03:51:26;13.15;;;7.72;;
58302;SDS011;44109;52.398;7.024;2023-04-24T03:53:56;14.65;;;9.32;;
58302;SDS011;44109;52.398;7.024;2023-04-24T03:56:23;17.83;;;10.52;;
58302;SDS011;44109;52.398;7.024;2023-04-24T03:58:52;15.93;;;10.45;;
58302;SDS011;44109;52.398;7.024;2023-04-24T04:01:20;17.08;;;12.10;;
58302;SDS011;44109;52.398;7.024;2023-04-24T04:03:48;17.90;;;10.30;;
58302;SDS011;44109;52.398;7.024;2023-04-24T04:06:16;12.15;;;8.00;;
58302;SDS011;44109;52.398;7.024;2023-04-24T04:08:45;8.70;;;6.22;;
58302;SDS011;44109;52.398;7.024;2023-04-24T04:11:12;12.38;;;6.90;;
58302;SDS011;44109;52.398;7.024;2023-04-24T04:13:40;14.82;;;9.38;;
58302;SDS011;44109;52.398;7.024;2023-04-24T04:16:10;18.00;;;9.18;;
58302;SDS011;44109;52.398;7.024;2023-04-24T04:18:38;13.35;;;7.45;;
58302;SDS011;44109;52.398;7.024;2023-04-24T04:21:06;11.70;;;7.57;;
58302;SDS011;44109;52.398;7.024;2023-04-24T04:23:33;18.67;;;10.73;;
58302;SDS011;44109;52.398;7.024;2023-04-24T04:26:01;15.48;;;10.15;;
58302;SDS011;44109;52.398;7.024;2023-04-24T04:28:31;19.17;;;10.27;;
58302;SDS011;44109;52.398;7.024;2023-04-24T04:30:58;19.33;;;12.52;;
58302;SDS011;44109;52.398;7.024;2023-04-24T04:33:28;19.17;;;12.20;;
58302;SDS011;44109;52.398;7.024;2023-04-24T04:35:55;15.60;;;9.13;;
58302;SDS011;44109;52.398;7.024;2023-04-24T04:38:23;21.05;;;10.27;;
58302;SDS011;44109;52.398;7.024;2023-04-24T04:40:52;18.10;;;11.32;;
58302;SDS011;44109;52.398;7.024;2023-04-24T04:43:22;19.10;;;11.23;;
58302;SDS011;44109;52.398;7.024;2023-04-24T04:45:52;12.23;;;8.45;;
58302;SDS011;44109;52.398;7.024;2023-04-24T04:48:20;19.90;;;11.48;;
58302;SDS011;44109;52.398;7.024;2023-04-24T04:50:49;17.70;;;10.60;;
58302;SDS011;44109;52.398;7.024;2023-04-24T04:53:17;16.25;;;10.75;;
58302;SDS011;44109;52.398;7.024;2023-04-24T04:55:44;22.58;;;10.23;;
58302;SDS011;44109;52.398;7.024;2023-04-24T04:58:13;19.83;;;10.40;;
58302;SDS011;44109;52.398;7.024;2023-04-24T05:00:41;13.82;;;8.63;;
58302;SDS011;44109;52.398;7.024;2023-04-24T05:03:08;23.63;;;14.05;;
58302;SDS011;44109;52.398;7.024;2023-04-24T05:05:36;24.67;;;14.95;;
58302;SDS011;44109;52.398;7.024;2023-04-24T05:08:07;18.77;;;12.13;;
58302;SDS011;44109;52.398;7.024;2023-04-24T05:10:35;19.40;;;11.18;;
58302;SDS011;44109;52.398;7.024;2023-04-24T05:13:03;25.80;;;15.95;;
58302;SDS011;44109;52.398;7.024;2023-04-24T05:15:30;27.98;;;17.45;;
58302;SDS011;44109;52.398;7.024;2023-04-24T05:17:58;24.90;;;14.52;;
58302;SDS011;44109;52.398;7.024;2023-04-24T05:20:26;21.95;;;12.02;;
58302;SDS011;44109;52.398;7.024;2023-04-24T05:22:53;20.83;;;13.35;;
58302;SDS011;44109;52.398;7.024;2023-04-24T05:25:22;21.02;;;11.10;;
58302;SDS011;44109;52.398;7.024;2023-04-24T05:27:50;23.80;;;14.93;;
58302;SDS011;44109;52.398;7.024;2023-04-24T05:30:19;25.73;;;16.65;;
58302;SDS011;44109;52.398;7.024;2023-04-24T05:32:47;20.85;;;12.02;;
58302;SDS011;44109;52.398;7.024;2023-04-24T05:35:14;24.27;;;15.90;;
58302;SDS011;44109;52.398;7.024;2023-04-24T05:37:42;18.30;;;9.77;;
58302;SDS011;44109;52.398;7.024;2023-04-24T05:40:10;21.00;;;13.80;;
58302;SDS011;44109;52.398;7.024;2023-04-24T05:42:39;17.33;;;10.25;;
58302;SDS011;44109;52.398;7.024;2023-04-24T05:45:07;20.08;;;13.50;;
58302;SDS011;44109;52.398;7.024;2023-04-24T05:47:40;22.75;;;13.82;;
58302;SDS011;44109;52.398;7.024;2023-04-24T05:50:08;21.13;;;11.35;;
58302;SDS011;44109;52.398;7.024;2023-04-24T05:52:37;23.02;;;13.93;;
58302;SDS011;44109;52.398;7.024;2023-04-24T05:55:04;23.05;;;13.18;;
58302;SDS011;44109;52.398;7.024;2023-04-24T05:57:33;23.40;;;15.73;;
58302;SDS011;44109;52.398;7.024;2023-04-24T06:00:02;22.00;;;10.60;;
58302;SDS011;44109;52.398;7.024;2023-04-24T06:02:31;20.05;;;13.07;;
58302;SDS011;44109;52.398;7.024;2023-04-24T06:04:59;19.38;;;13.02;;
58302;SDS011;44109;52.398;7.024;2023-04-24T06:07:27;17.23;;;11.00;;
58302;SDS011;44109;52.398;7.024;2023-04-24T06:09:55;19.13;;;10.77;;
58302;SDS011;44109;52.398;7.024;2023-04-24T06:12:22;18.38;;;13.38;;
58302;SDS011;44109;52.398;7.024;2023-04-24T06:14:50;15.52;;;9.55;;
58302;SDS011;44109;52.398;7.024;2023-04-24T06:17:19;19.50;;;12.15;;
58302;SDS011;44109;52.398;7.024;2023-04-24T06:19:46;18.30;;;10.43;;
58302;SDS011;44109;52.398;7.024;2023-04-24T06:22:14;18.13;;;10.00;;
58302;SDS011;44109;52.398;7.024;2023-04-24T06:24:42;20.35;;;12.35;;
58302;SDS011;44109;52.398;7.024;2023-04-24T06:27:09;16.98;;;10.07;;
58302;SDS011;44109;52.398;7.024;2023-04-24T06:29:37;15.45;;;10.45;;
58302;SDS011;44109;52.398;7.024;2023-04-24T06:32:05;21.60;;;13.18;;
58302;SDS011;44109;52.398;7.024;2023-04-24T06:34:34;17.70;;;10.18;;
58302;SDS011;44109;52.398;7.024;2023-04-24T06:37:02;17.58;;;11.40;;
58302;SDS011;44109;52.398;7.024;2023-04-24T06:39:30;16.42;;;11.52;;
58302;SDS011;44109;52.398;7.024;2023-04-24T06:41:58;15.30;;;10.52;;
58302;SDS011;44109;52.398;7.024;2023-04-24T06:44:26;16.77;;;11.35;;
58302;SDS011;44109;52.398;7.024;2023-04-24T06:46:53;19.92;;;11.63;;
58302;SDS011;44109;52.398;7.024;2023-04-24T06:49:21;23.65;;;14.82;;
58302;SDS011;44109;52.398;7.024;2023-04-24T06:51:50;21.63;;;13.30;;
58302;SDS011;44109;52.398;7.024;2023-04-24T06:54:18;14.48;;;8.43;;
58302;SDS011;44109;52.398;7.024;2023-04-24T06:56:46;20.40;;;12.52;;
58302;SDS011;44109;52.398;7.024;2023-04-24T06:59:14;22.35;;;14.40;;
58302;SDS011;44109;52.398;7.024;2023-04-24T07:01:42;21.08;;;11.68;;
58302;SDS011;44109;52.398;7.024;2023-04-24T07:04:09;21.75;;;12.15;;
58302;SDS011;44109;52.398;7.024;2023-04-24T07:06:38;14.55;;;8.27;;
58302;SDS011;44109;52.398;7.024;2023-04-24T07:09:08;19.17;;;12.68;;
58302;SDS011;44109;52.398;7.024;2023-04-24T07:11:36;17.40;;;9.73;;
58302;SDS011;44109;52.398;7.024;2023-04-24T07:14:06;16.55;;;8.90;;
58302;SDS011;44109;52.398;7.024;2023-04-24T07:16:34;12.45;;;8.15;;
58302;SDS011;44109;52.398;7.024;2023-04-24T07:19:02;17.33;;;11.38;;
58302;SDS011;44109;52.398;7.024;2023-04-24T07:21:30;13.70;;;8.18;;
58302;SDS011;44109;52.398;7.024;2023-04-24T07:23:58;14.48;;;10.98;;
58302;SDS011;44109;52.398;7.024;2023-04-24T07:26:27;11.77;;;7.97;;
58302;SDS011;44109;52.398;7.024;2023-04-24T07:28:56;17.88;;;9.93;;
58302;SDS011;44109;52.398;7.024;2023-04-24T07:31:24;18.98;;;12.23;;
58302;SDS011;44109;52.398;7.024;2023-04-24T07:33:52;10.98;;;7.43;;
58302;SDS011;44109;52.398;7.024;2023-04-24T07:36:19;14.48;;;9.77;;
58302;SDS011;44109;52.398;7.024;2023-04-24T07:38:47;16.38;;;9.77;;
58302;SDS011;44109;52.398;7.024;2023-04-24T07:41:15;21.27;;;10.88;;
58302;SDS011;44109;52.398;7.024;2023-04-24T07:43:44;17.70;;;11.85;;
58302;SDS011;44109;52.398;7.024;2023-04-24T07:46:12;15.15;;;9.82;;
58302;SDS011;44109;52.398;7.024;2023-04-24T07:48:40;10.60;;;7.63;;
58302;SDS011;44109;52.398;7.024;2023-04-24T07:51:08;17.25;;;10.50;;
58302;SDS011;44109;52.398;7.024;2023-04-24T07:53:38;16.92;;;9.38;;
58302;SDS011;44109;52.398;7.024;2023-04-24T07:56:05;17.55;;;10.40;;
58302;SDS011;44109;52.398;7.024;2023-04-24T07:58:35;11.32;;;7.38;;
58302;SDS011;44109;52.398;7.024;2023-04-24T08:01:04;16.38;;;9.27;;
58302;SDS011;44109;52.398;7.024;2023-04-24T08:03:31;17.15;;;10.63;;
58302;SDS011;44109;52.398;7.024;2023-04-24T08:05:59;18.05;;;11.27;;
58302;SDS011;44109;52.398;7.024;2023-04-24T08:08:27;19.48;;;10.77;;
58302;SDS011;44109;52.398;7.024;2023-04-24T08:10:55;13.20;;;8.27;;
58302;SDS011;44109;52.398;7.024;2023-04-24T08:13:23;12.48;;;8.10;;
58302;SDS011;44109;52.398;7.024;2023-04-24T08:15:50;13.35;;;7.78;;
58302;SDS011;44109;52.398;7.024;2023-04-24T08:18:19;13.43;;;8.75;;
58302;SDS011;44109;52.398;7.024;2023-04-24T08:20:47;9.00;;;5.57;;
58302;SDS011;44109;52.398;7.024;2023-04-24T08:23:15;8.23;;;5.72;;
58302;SDS011;44109;52.398;7.024;2023-04-24T08:25:43;10.77;;;5.85;;
58302;SDS011;44109;52.398;7.024;2023-04-24T08:28:10;11.52;;;7.85;;
58302;SDS011;44109;52.398;7.024;2023-04-24T08:30:38;13.25;;;6.78;;
58302;SDS011;44109;52.398;7.024;2023-04-24T08:33:06;8.60;;;6.35;;
58302;SDS011;44109;52.398;7.024;2023-04-24T08:35:35;10.15;;;6.40;;
58302;SDS011;44109;52.398;7.024;2023-04-24T08:38:03;13.02;;;7.45;;
58302;SDS011;44109;52.398;7.024;2023-04-24T08:40:31;11.63;;;7.05;;
58302;SDS011;44109;52.398;7.024;2023-04-24T08:43:01;11.57;;;7.00;;
58302;SDS011;44109;52.398;7.024;2023-04-24T08:45:31;12.75;;;7.70;;
58302;SDS011;44109;52.398;7.024;2023-04-24T08:48:00;10.75;;;6.22;;
58302;SDS011;44109;52.398;7.024;2023-04-24T08:50:29;7.50;;;5.28;;
58302;SDS011;44109;52.398;7.024;2023-04-24T08:53:00;9.73;;;5.35;;
58302;SDS011;44109;52.398;7.024;2023-04-24T08:55:29;13.07;;;6.70;;
58302;SDS011;44109;52.398;7.024;2023-04-24T08:57:57;11.25;;;5.68;;
58302;SDS011;44109;52.398;7.024;2023-04-24T09:00:28;8.00;;;5.32;;
58302;SDS011;44109;52.398;7.024;2023-04-24T09:02:56;7.35;;;4.88;;
58302;SDS011;44109;52.398;7.024;2023-04-24T09:05:25;7.68;;;4.40;;
58302;SDS011;44109;52.398;7.024;2023-04-24T09:07:54;6.13;;;3.63;;
58302;SDS011;44109;52.398;7.024;2023-04-24T09:10:25;5.85;;;3.65;;
58302;SDS011;44109;52.398;7.024;2023-04-24T09:12:56;7.07;;;4.20;;
58302;SDS011;44109;52.398;7.024;2023-04-24T09:15:27;5.75;;;3.28;;
58302;SDS011;44109;52.398;7.024;2023-04-24T09:17:56;4.65;;;2.95;;
58302;SDS011;44109;52.398;7.024;2023-04-24T09:20:24;4.13;;;2.08;;
58302;SDS011;44109;52.398;7.024;2023-04-24T09:22:53;4.20;;;2.92;;
58302;SDS011;44109;52.398;7.024;2023-04-24T09:25:24;4.40;;;2.47;;
58302;SDS011;44109;52.398;7.024;2023-04-24T09:28:00;3.72;;;2.45;;
58302;SDS011;44109;52.398;7.024;2023-04-24T09:30:28;5.30;;;2.50;;
58302;SDS011;44109;52.398;7.024;2023-04-24T09:33:09;4.63;;;2.53;;
58302;SDS011;44109;52.398;7.024;2023-04-24T09:35:40;4.38;;;2.17;;
58302;SDS011;44109;52.398;7.024;2023-04-24T09:38:09;5.43;;;2.53;;
58302;SDS011;44109;52.398;7.024;2023-04-24T09:40:38;5.85;;;3.10;;
58302;SDS011;44109;52.398;7.024;2023-04-24T09:43:10;7.47;;;3.72;;
58302;SDS011;44109;52.398;7.024;2023-04-24T09:45:38;5.95;;;4.10;;
58302;SDS011;44109;52.398;7.024;2023-04-24T09:48:08;7.25;;;4.10;;
58302;SDS011;44109;52.398;7.024;2023-04-24T09:50:37;10.13;;;5.53;;
58302;SDS011;44109;52.398;7.024;2023-04-24T09:53:05;13.65;;;7.32;;
58302;SDS011;44109;52.398;7.024;2023-04-24T09:55:35;12.43;;;6.78;;
58302;SDS011;44109;52.398;7.024;2023-04-24T09:58:14;18.88;;;8.73;;
58302;SDS011;44109;52.398;7.024;2023-04-24T10:00:41;12.65;;;8.70;;
58302;SDS011;44109;52.398;7.024;2023-04-24T10:03:09;14.65;;;8.68;;
58302;SDS011;44109;52.398;7.024;2023-04-24T10:05:37;13.48;;;7.60;;
58302;SDS011;44109;52.398;7.024;2023-04-24T10:08:06;19.33;;;8.38;;
58302;SDS011;44109;52.398;7.024;2023-04-24T10:10:38;16.13;;;9.05;;
58302;SDS011;44109;52.398;7.024;2023-04-24T10:13:09;15.55;;;9.07;;
58302;SDS011;44109;52.398;7.024;2023-04-24T10:15:39;13.20;;;7.55;;
58302;SDS011;44109;52.398;7.024;2023-04-24T10:18:09;14.82;;;7.40;;
58302;SDS011;44109;52.398;7.024;2023-04-24T10:20:38;14.68;;;7.78;;
58302;SDS011;44109;52.398;7.024;2023-04-24T10:23:07;12.80;;;8.40;;
58302;SDS011;44109;52.398;7.024;2023-04-24T10:25:35;10.90;;;7.35;;
58302;SDS011;44109;52.398;7.024;2023-04-24T10:28:05;11.40;;;6.60;;
58302;SDS011;44109;52.398;7.024;2023-04-24T10:30:34;9.02;;;6.78;;
58302;SDS011;44109;52.398;7.024;2023-04-24T10:33:02;12.70;;;6.20;;
58302;SDS011;44109;52.398;7.024;2023-04-24T10:35:31;10.65;;;6.45;;
58302;SDS011;44109;52.398;7.024;2023-04-24T10:38:03;10.70;;;6.13;;
58302;SDS011;44109;52.398;7.024;2023-04-24T10:40:36;14.40;;;7.30;;
58302;SDS011;44109;52.398;7.024;2023-04-24T10:43:06;8.63;;;5.55;;
58302;SDS011;44109;52.398;7.024;2023-04-24T10:45:37;9.60;;;6.97;;
58302;SDS011;44109;52.398;7.024;2023-04-24T10:48:06;11.98;;;5.57;;
58302;SDS011;44109;52.398;7.024;2023-04-24T10:50:42;14.07;;;6.40;;
58302;SDS011;44109;52.398;7.024;2023-04-24T10:53:14;9.68;;;5.53;;
58302;SDS011;44109;52.398;7.024;2023-04-24T10:55:44;10.27;;;5.78;;
58302;SDS011;44109;52.398;7.024;2023-04-24T10:58:16;9.77;;;5.28;;
58302;SDS011;44109;52.398;7.024;2023-04-24T11:00:55;9.98;;;5.85;;
58302;SDS011;44109;52.398;7.024;2023-04-24T11:03:26;8.45;;;5.18;;
58302;SDS011;44109;52.398;7.024;2023-04-24T11:05:56;7.22;;;4.78;;
58302;SDS011;44109;52.398;7.024;2023-04-24T11:08:27;7.22;;;4.28;;
58302;SDS011;44109;52.398;7.024;2023-04-24T11:11:08;5.40;;;3.67;;
58302;SDS011;44109;52.398;7.024;2023-04-24T11:16:34;7.57;;;3.60;;
58302;SDS011;44109;52.398;7.024;2023-04-24T11:19:18;7.30;;;3.22;;
58302;SDS011;44109;52.398;7.024;2023-04-24T11:21:54;6.23;;;3.57;;
58302;SDS011;44109;52.398;7.024;2023-04-24T11:24:27;10.82;;;3.58;;
58302;SDS011;44109;52.398;7.024;2023-04-24T11:26:58;15.43;;;3.42;;
58302;SDS011;44109;52.398;7.024;2023-04-24T11:29:39;10.98;;;4.15;;
58302;SDS011;44109;52.398;7.024;2023-04-24T11:32:16;5.93;;;2.90;;
58302;SDS011;44109;52.398;7.024;2023-04-24T11:34:55;8.88;;;3.05;;
58302;SDS011;44109;52.398;7.024;2023-04-24T11:37:27;7.20;;;3.22;;
58302;SDS011;44109;52.398;7.024;2023-04-24T11:40:00;6.57;;;3.40;;
58302;SDS011;44109;52.398;7.024;2023-04-24T11:42:33;8.27;;;3.53;;
58302;SDS011;44109;52.398;7.024;2023-04-24T11:45:06;6.82;;;3.28;;
58302;SDS011;44109;52.398;7.024;2023-04-24T11:47:36;10.52;;;4.55;;
58302;SDS011;44109;52.398;7.024;2023-04-24T11:50:06;10.75;;;3.50;;
58302;SDS011;44109;52.398;7.024;2023-04-24T11:52:36;8.40;;;3.33;;
58302;SDS011;44109;52.398;7.024;2023-04-24T11:55:06;9.73;;;4.32;;
58302;SDS011;44109;52.398;7.024;2023-04-24T11:57:50;7.22;;;4.00;;
58302;SDS011;44109;52.398;7.024;2023-04-24T12:00:24;6.65;;;3.67;;
58302;SDS011;44109;52.398;7.024;2023-04-24T12:03:03;11.23;;;4.47;;
58302;SDS011;44109;52.398;7.024;2023-04-24T12:05:33;6.28;;;3.85;;
58302;SDS011;44109;52.398;7.024;2023-04-24T12:08:01;5.75;;;3.42;;
58302;SDS011;44109;52.398;7.024;2023-04-24T12:10:29;5.70;;;3.03;;
58302;SDS011;44109;52.398;7.024;2023-04-24T12:13:00;6.97;;;3.30;;
58302;SDS011;44109;52.398;7.024;2023-04-24T12:15:29;6.65;;;3.75;;
58302;SDS011;44109;52.398;7.024;2023-04-24T12:17:57;5.72;;;2.65;;
58302;SDS011;44109;52.398;7.024;2023-04-24T12:20:25;8.98;;;2.72;;
58302;SDS011;44109;52.398;7.024;2023-04-24T12:22:55;9.25;;;2.88;;
58302;SDS011;44109;52.398;7.024;2023-04-24T12:25:24;10.07;;;3.70;;
58302;SDS011;44109;52.398;7.024;2023-04-24T12:27:55;6.40;;;3.08;;
58302;SDS011;44109;52.398;7.024;2023-04-24T12:30:40;10.45;;;3.08;;
58302;SDS011;44109;52.398;7.024;2023-04-24T12:33:10;5.68;;;3.00;;
58302;SDS011;44109;52.398;7.024;2023-04-24T12:35:39;3.30;;;2.08;;
58302;SDS011;44109;52.398;7.024;2023-04-24T12:38:08;4.13;;;2.13;;
58302;SDS011;44109;52.398;7.024;2023-04-24T12:40:39;6.45;;;2.78;;
58302;SDS011;44109;52.398;7.024;2023-04-24T12:43:13;4.88;;;2.53;;
58302;SDS011;44109;52.398;7.024;2023-04-24T12:45:43;4.30;;;2.25;;
58302;SDS011;44109;52.398;7.024;2023-04-24T12:48:11;6.47;;;2.85;;
58302;SDS011;44109;52.398;7.024;2023-04-24T12:50:40;11.15;;;2.40;;
58302;SDS011;44109;52.398;7.024;2023-04-24T12:53:08;4.35;;;2.50;;
58302;SDS011;44109;52.398;7.024;2023-04-24T12:55:36;7.68;;;2.50;;
58302;SDS011;44109;52.398;7.024;2023-04-24T12:58:04;7.72;;;1.98;;
58302;SDS011;44109;52.398;7.024;2023-04-24T13:00:32;4.32;;;2.17;;
58302;SDS011;44109;52.398;7.024;2023-04-24T13:03:01;6.10;;;2.47;;
58302;SDS011;44109;52.398;7.024;2023-04-24T13:05:30;5.13;;;2.45;;
58302;SDS011;44109;52.398;7.024;2023-04-24T13:07:57;4.78;;;2.42;;
58302;SDS011;44109;52.398;7.024;2023-04-24T13:10:25;4.70;;;1.50;;
58302;SDS011;44109;52.398;7.024;2023-04-24T13:12:53;3.28;;;1.98;;
58302;SDS011;44109;52.398;7.024;2023-04-24T13:15:21;9.05;;;2.28;;
58302;SDS011;44109;52.398;7.024;2023-04-24T13:17:48;2.25;;;1.42;;
58302;SDS011;44109;52.398;7.024;2023-04-24T13:20:19;3.58;;;1.65;;
58302;SDS011;44109;52.398;7.024;2023-04-24T13:22:46;2.50;;;1.42;;
58302;SDS011;44109;52.398;7.024;2023-04-24T13:25:14;2.28;;;1.00;;
58302;SDS011;44109;52.398;7.024;2023-04-24T13:27:43;2.80;;;0.98;;
58302;SDS011;44109;52.398;7.024;2023-04-24T13:30:11;3.70;;;1.67;;
58302;SDS011;44109;52.398;7.024;2023-04-24T13:32:39;5.35;;;1.70;;
58302;SDS011;44109;52.398;7.024;2023-04-24T13:35:07;3.38;;;1.30;;
58302;SDS011;44109;52.398;7.024;2023-04-24T13:37:37;3.65;;;1.50;;
58302;SDS011;44109;52.398;7.024;2023-04-24T13:40:05;2.30;;;1.25;;
58302;SDS011;44109;52.398;7.024;2023-04-24T13:42:34;1.55;;;0.98;;
58302;SDS011;44109;52.398;7.024;2023-04-24T13:45:01;6.15;;;1.30;;
58302;SDS011;44109;52.398;7.024;2023-04-24T13:47:30;5.43;;;1.95;;
58302;SDS011;44109;52.398;7.024;2023-04-24T13:49:58;3.90;;;2.40;;
58302;SDS011;44109;52.398;7.024;2023-04-24T13:52:25;3.17;;;1.20;;
58302;SDS011;44109;52.398;7.024;2023-04-24T13:54:54;1.95;;;1.10;;
58302;SDS011;44109;52.398;7.024;2023-04-24T13:57:22;1.70;;;0.90;;
58302;SDS011;44109;52.398;7.024;2023-04-24T13:59:49;2.78;;;1.15;;
58302;SDS011;44109;52.398;7.024;2023-04-24T14:02:17;2.05;;;1.23;;
58302;SDS011;44109;52.398;7.024;2023-04-24T14:04:45;3.85;;;1.30;;
58302;SDS011;44109;52.398;7.024;2023-04-24T14:07:13;2.63;;;1.52;;
58302;SDS011;44109;52.398;7.024;2023-04-24T14:09:41;5.55;;;1.35;;
58302;SDS011;44109;52.398;7.024;2023-04-24T14:12:10;2.08;;;0.95;;
58302;SDS011;44109;52.398;7.024;2023-04-24T14:14:38;2.33;;;0.88;;
58302;SDS011;44109;52.398;7.024;2023-04-24T14:17:06;1.67;;;0.95;;
58302;SDS011;44109;52.398;7.024;2023-04-24T14:19:33;1.83;;;0.90;;
58302;SDS011;44109;52.398;7.024;2023-04-24T14:22:01;6.78;;;1.23;;
58302;SDS011;44109;52.398;7.024;2023-04-24T14:24:28;2.00;;;1.08;;
58302;SDS011;44109;52.398;7.024;2023-04-24T14:26:56;2.33;;;0.80;;
58302;SDS011;44109;52.398;7.024;2023-04-24T14:29:26;2.05;;;0.70;;
58302;SDS011;44109;52.398;7.024;2023-04-24T14:31:53;2.65;;;1.00;;
58302;SDS011;44109;52.398;7.024;2023-04-24T14:34:21;2.25;;;1.13;;
58302;SDS011;44109;52.398;7.024;2023-04-24T14:36:48;4.95;;;1.20;;
58302;SDS011;44109;52.398;7.024;2023-04-24T14:39:16;5.28;;;1.58;;
58302;SDS011;44109;52.398;7.024;2023-04-24T14:41:44;2.65;;;1.30;;
58302;SDS011;44109;52.398;7.024;2023-04-24T14:44:11;4.53;;;1.27;;
58302;SDS011;44109;52.398;7.024;2023-04-24T14:46:40;4.38;;;1.90;;
58302;SDS011;44109;52.398;7.024;2023-04-24T14:49:08;3.05;;;1.00;;
58302;SDS011;44109;52.398;7.024;2023-04-24T14:51:40;4.80;;;1.40;;